sensor_id;sensor_type;location;lat;lon;timestamp;temperature;humidity
46508;DHT22;32223;53.654;10.014;2022-07-04T00:02:08;14.50;99.90
46508;DHT22;32223;53.654;10.014;2022-07-04T00:04:33;14.50;99.90
46508;DHT22;32223;53.654;10.014;2022-07-04T00:06:59;14.50;99.90
46508;DHT22;32223;53.654;10.014;2022-07-04T00:09:24;14.50;99.90
46508;DHT22;32223;53.654;10.014;2022-07-04T00:11:50;14.40;99.90
46508;DHT22;32223;53.654;10.014;2022-07-04T00:14:16;14.40;99.90
46508;DHT22;32223;53.654;10.014;2022-07-04T00:16:42;14.40;99.90
46508;DHT22;32223;53.654;10.014;2022-07-04T00:19:07;14.40;99.90
46508;DHT22;32223;53.654;10.014;2022-07-04T00:21:33;14.50;99.90
46508;DHT22;32223;53.654;10.014;2022-07-04T00:23:59;14.50;99.90
46508;DHT22;32223;53.654;10.014;2022-07-04T00:26:25;14.50;99.90
46508;DHT22;32223;53.654;10.014;2022-07-04T00:28:51;14.50;99.90
46508;DHT22;32223;53.654;10.014;2022-07-04T00:31:16;14.50;99.90
46508;DHT22;32223;53.654;10.014;2022-07-04T00:33:42;14.40;99.90
46508;DHT22;32223;53.654;10.014;2022-07-04T00:36:08;14.40;99.90
46508;DHT22;32223;53.654;10.014;2022-07-04T00:38:33;14.30;99.90
46508;DHT22;32223;53.654;10.014;2022-07-04T00:40:59;14.30;99.90
46508;DHT22;32223;53.654;10.014;2022-07-04T00:43:26;14.20;99.90
46508;DHT22;32223;53.654;10.014;2022-07-04T00:45:52;14.20;99.90
46508;DHT22;32223;53.654;10.014;2022-07-04T00:48:18;14.20;99.90
46508;DHT22;32223;53.654;10.014;2022-07-04T00:50:47;14.10;99.90
46508;DHT22;32223;53.654;10.014;2022-07-04T00:53:21;14.10;99.90
46508;DHT22;32223;53.654;10.014;2022-07-04T00:55:50;14.10;99.90
46508;DHT22;32223;53.654;10.014;2022-07-04T00:58:19;14.10;99.90
46508;DHT22;32223;53.654;10.014;2022-07-04T01:00:45;14.00;99.90
46508;DHT22;32223;53.654;10.014;2022-07-04T01:03:11;14.00;99.90
46508;DHT22;32223;53.654;10.014;2022-07-04T01:05:38;14.00;99.90
46508;DHT22;32223;53.654;10.014;2022-07-04T01:08:05;14.00;99.90
46508;DHT22;32223;53.654;10.014;2022-07-04T01:10:30;14.00;99.90
46508;DHT22;32223;53.654;10.014;2022-07-04T01:12:56;14.00;99.90
46508;DHT22;32223;53.654;10.014;2022-07-04T01:15:22;14.00;99.90
46508;DHT22;32223;53.654;10.014;2022-07-04T01:17:48;14.00;99.90
46508;DHT22;32223;53.654;10.014;2022-07-04T01:20:15;14.10;99.90
46508;DHT22;32223;53.654;10.014;2022-07-04T01:22:41;14.10;99.90
46508;DHT22;32223;53.654;10.014;2022-07-04T01:25:08;14.10;99.90
46508;DHT22;32223;53.654;10.014;2022-07-04T01:27:34;14.20;99.90
46508;DHT22;32223;53.654;10.014;2022-07-04T01:30:00;14.20;99.90
46508;DHT22;32223;53.654;10.014;2022-07-04T01:32:26;14.20;99.90
46508;DHT22;32223;53.654;10.014;2022-07-04T01:34:51;14.20;99.90
46508;DHT22;32223;53.654;10.014;2022-07-04T01:37:17;14.20;99.90
46508;DHT22;32223;53.654;10.014;2022-07-04T01:39:43;14.20;99.90
46508;DHT22;32223;53.654;10.014;2022-07-04T01:42:09;14.20;99.90
46508;DHT22;32223;53.654;10.014;2022-07-04T01:44:35;14.20;99.90
46508;DHT22;32223;53.654;10.014;2022-07-04T01:47:01;14.20;99.90
46508;DHT22;32223;53.654;10.014;2022-07-04T01:49:27;14.10;99.90
46508;DHT22;32223;53.654;10.014;2022-07-04T01:51:53;14.10;99.90
46508;DHT22;32223;53.654;10.014;2022-07-04T01:54:19;14.10;99.90
46508;DHT22;32223;53.654;10.014;2022-07-04T01:56:45;14.00;99.90
46508;DHT22;32223;53.654;10.014;2022-07-04T01:59:11;14.00;99.90
46508;DHT22;32223;53.654;10.014;2022-07-04T02:01:37;14.00;99.90
46508;DHT22;32223;53.654;10.014;2022-07-04T02:04:05;14.10;99.90
46508;DHT22;32223;53.654;10.014;2022-07-04T02:06:31;14.10;99.90
46508;DHT22;32223;53.654;10.014;2022-07-04T02:08:58;14.10;99.90
46508;DHT22;32223;53.654;10.014;2022-07-04T02:11:43;14.10;99.90
46508;DHT22;32223;53.654;10.014;2022-07-04T02:14:29;14.10;99.90
46508;DHT22;32223;53.654;10.014;2022-07-04T02:16:55;14.20;99.90
46508;DHT22;32223;53.654;10.014;2022-07-04T02:19:20;14.10;99.90
46508;DHT22;32223;53.654;10.014;2022-07-04T02:21:46;14.00;99.90
46508;DHT22;32223;53.654;10.014;2022-07-04T02:24:11;14.00;99.90
46508;DHT22;32223;53.654;10.014;2022-07-04T02:26:37;14.00;99.90
46508;DHT22;32223;53.654;10.014;2022-07-04T02:29:03;14.00;99.90
46508;DHT22;32223;53.654;10.014;2022-07-04T02:31:28;14.00;99.90
46508;DHT22;32223;53.654;10.014;2022-07-04T02:33:54;14.00;99.90
46508;DHT22;32223;53.654;10.014;2022-07-04T02:36:19;14.00;99.90
46508;DHT22;32223;53.654;10.014;2022-07-04T02:38:45;14.00;99.90
46508;DHT22;32223;53.654;10.014;2022-07-04T02:41:11;14.00;99.90
46508;DHT22;32223;53.654;10.014;2022-07-04T02:43:36;14.00;99.90
46508;DHT22;32223;53.654;10.014;2022-07-04T02:46:02;14.10;99.90
46508;DHT22;32223;53.654;10.014;2022-07-04T02:48:28;14.00;99.90
46508;DHT22;32223;53.654;10.014;2022-07-04T02:50:53;14.00;99.90
46508;DHT22;32223;53.654;10.014;2022-07-04T02:53:19;14.00;99.90
46508;DHT22;32223;53.654;10.014;2022-07-04T02:55:44;14.00;99.90
46508;DHT22;32223;53.654;10.014;2022-07-04T02:58:10;14.00;99.90
46508;DHT22;32223;53.654;10.014;2022-07-04T03:00:36;13.90;99.90
46508;DHT22;32223;53.654;10.014;2022-07-04T03:03:01;13.90;99.90
46508;DHT22;32223;53.654;10.014;2022-07-04T03:05:27;13.80;99.90
46508;DHT22;32223;53.654;10.014;2022-07-04T03:07:57;13.90;99.90
46508;DHT22;32223;53.654;10.014;2022-07-04T03:10:23;13.80;99.90
46508;DHT22;32223;53.654;10.014;2022-07-04T03:12:48;13.80;99.90
46508;DHT22;32223;53.654;10.014;2022-07-04T03:15:14;13.80;99.90
46508;DHT22;32223;53.654;10.014;2022-07-04T03:17:39;13.80;99.90
46508;DHT22;32223;53.654;10.014;2022-07-04T03:20:05;13.70;99.90
46508;DHT22;32223;53.654;10.014;2022-07-04T03:22:31;13.70;99.90
46508;DHT22;32223;53.654;10.014;2022-07-04T03:24:57;13.70;99.90
46508;DHT22;32223;53.654;10.014;2022-07-04T03:27:22;13.60;99.90
46508;DHT22;32223;53.654;10.014;2022-07-04T03:29:48;13.70;99.90
46508;DHT22;32223;53.654;10.014;2022-07-04T03:32:14;13.70;99.90
46508;DHT22;32223;53.654;10.014;2022-07-04T03:34:39;13.80;99.90
46508;DHT22;32223;53.654;10.014;2022-07-04T03:37:05;13.80;99.90
46508;DHT22;32223;53.654;10.014;2022-07-04T03:39:30;13.90;99.90
46508;DHT22;32223;53.654;10.014;2022-07-04T03:41:56;13.80;99.90
46508;DHT22;32223;53.654;10.014;2022-07-04T03:44:21;13.80;99.90
46508;DHT22;32223;53.654;10.014;2022-07-04T03:46:48;13.90;99.90
46508;DHT22;32223;53.654;10.014;2022-07-04T03:49:14;13.90;99.90
46508;DHT22;32223;53.654;10.014;2022-07-04T03:51:40;13.90;99.90
46508;DHT22;32223;53.654;10.014;2022-07-04T03:54:05;13.90;99.90
46508;DHT22;32223;53.654;10.014;2022-07-04T03:56:31;14.00;99.90
46508;DHT22;32223;53.654;10.014;2022-07-04T03:58:56;13.90;99.90
46508;DHT22;32223;53.654;10.014;2022-07-04T04:01:22;14.00;99.90
46508;DHT22;32223;53.654;10.014;2022-07-04T04:03:48;14.00;99.90
46508;DHT22;32223;53.654;10.014;2022-07-04T04:06:32;14.00;99.90
46508;DHT22;32223;53.654;10.014;2022-07-04T04:08:58;13.90;99.90
46508;DHT22;32223;53.654;10.014;2022-07-04T04:11:23;14.00;99.90
46508;DHT22;32223;53.654;10.014;2022-07-04T04:13:49;14.00;99.90
46508;DHT22;32223;53.654;10.014;2022-07-04T04:16:14;14.00;99.90
46508;DHT22;32223;53.654;10.014;2022-07-04T04:18:40;14.10;99.90
46508;DHT22;32223;53.654;10.014;2022-07-04T04:21:06;14.10;99.90
46508;DHT22;32223;53.654;10.014;2022-07-04T04:23:32;14.20;99.90
46508;DHT22;32223;53.654;10.014;2022-07-04T04:25:57;14.30;99.90
46508;DHT22;32223;53.654;10.014;2022-07-04T04:28:23;14.40;99.90
46508;DHT22;32223;53.654;10.014;2022-07-04T04:30:50;14.50;99.90
46508;DHT22;32223;53.654;10.014;2022-07-04T04:33:15;14.50;99.90
46508;DHT22;32223;53.654;10.014;2022-07-04T04:35:41;14.50;99.90
46508;DHT22;32223;53.654;10.014;2022-07-04T04:38:06;14.50;99.90
46508;DHT22;32223;53.654;10.014;2022-07-04T04:40:32;14.60;99.90
46508;DHT22;32223;53.654;10.014;2022-07-04T04:42:58;14.60;99.90
46508;DHT22;32223;53.654;10.014;2022-07-04T04:45:24;14.70;99.90
46508;DHT22;32223;53.654;10.014;2022-07-04T04:47:49;14.70;99.90
46508;DHT22;32223;53.654;10.014;2022-07-04T04:50:15;14.70;99.90
46508;DHT22;32223;53.654;10.014;2022-07-04T04:52:41;14.80;99.90
46508;DHT22;32223;53.654;10.014;2022-07-04T04:55:07;14.80;99.90
46508;DHT22;32223;53.654;10.014;2022-07-04T04:57:34;14.80;99.90
46508;DHT22;32223;53.654;10.014;2022-07-04T05:00:00;14.80;99.90
46508;DHT22;32223;53.654;10.014;2022-07-04T05:02:26;14.90;99.90
46508;DHT22;32223;53.654;10.014;2022-07-04T05:04:52;14.90;99.90
46508;DHT22;32223;53.654;10.014;2022-07-04T05:07:18;15.00;99.90
46508;DHT22;32223;53.654;10.014;2022-07-04T05:09:44;15.00;99.90
46508;DHT22;32223;53.654;10.014;2022-07-04T05:12:10;15.20;99.90
46508;DHT22;32223;53.654;10.014;2022-07-04T05:14:36;15.20;99.90
46508;DHT22;32223;53.654;10.014;2022-07-04T05:17:01;15.30;99.90
46508;DHT22;32223;53.654;10.014;2022-07-04T05:19:27;15.40;99.90
46508;DHT22;32223;53.654;10.014;2022-07-04T05:21:53;15.40;99.90
46508;DHT22;32223;53.654;10.014;2022-07-04T05:24:19;15.50;99.90
46508;DHT22;32223;53.654;10.014;2022-07-04T05:26:44;15.60;99.90
46508;DHT22;32223;53.654;10.014;2022-07-04T05:29:10;15.70;99.90
46508;DHT22;32223;53.654;10.014;2022-07-04T05:31:36;15.80;99.90
46508;DHT22;32223;53.654;10.014;2022-07-04T05:34:01;15.90;99.90
46508;DHT22;32223;53.654;10.014;2022-07-04T05:36:27;15.90;99.90
46508;DHT22;32223;53.654;10.014;2022-07-04T05:38:53;15.90;99.90
46508;DHT22;32223;53.654;10.014;2022-07-04T05:41:19;16.00;99.90
46508;DHT22;32223;53.654;10.014;2022-07-04T05:43:45;16.10;99.90
46508;DHT22;32223;53.654;10.014;2022-07-04T05:46:10;16.10;99.90
46508;DHT22;32223;53.654;10.014;2022-07-04T05:48:36;16.20;99.90
46508;DHT22;32223;53.654;10.014;2022-07-04T05:51:03;16.30;99.90
46508;DHT22;32223;53.654;10.014;2022-07-04T05:53:29;16.40;99.90
46508;DHT22;32223;53.654;10.014;2022-07-04T05:55:54;16.50;99.90
46508;DHT22;32223;53.654;10.014;2022-07-04T05:58:20;16.60;99.90
46508;DHT22;32223;53.654;10.014;2022-07-04T06:00:46;16.70;99.90
46508;DHT22;32223;53.654;10.014;2022-07-04T06:03:11;16.80;99.90
46508;DHT22;32223;53.654;10.014;2022-07-04T06:05:37;16.90;99.90
46508;DHT22;32223;53.654;10.014;2022-07-04T06:08:03;17.10;99.90
46508;DHT22;32223;53.654;10.014;2022-07-04T06:10:29;17.20;99.90
46508;DHT22;32223;53.654;10.014;2022-07-04T06:12:55;17.40;99.90
46508;DHT22;32223;53.654;10.014;2022-07-04T06:15:20;17.30;99.90
46508;DHT22;32223;53.654;10.014;2022-07-04T06:17:46;17.30;99.90
46508;DHT22;32223;53.654;10.014;2022-07-04T06:20:12;17.30;99.90
46508;DHT22;32223;53.654;10.014;2022-07-04T06:22:42;17.30;99.90
46508;DHT22;32223;53.654;10.014;2022-07-04T06:25:16;17.30;99.90
46508;DHT22;32223;53.654;10.014;2022-07-04T06:27:43;17.30;99.90
46508;DHT22;32223;53.654;10.014;2022-07-04T06:30:10;17.30;99.90
46508;DHT22;32223;53.654;10.014;2022-07-04T06:32:53;17.50;99.90
46508;DHT22;32223;53.654;10.014;2022-07-04T06:35:27;17.60;99.90
46508;DHT22;32223;53.654;10.014;2022-07-04T06:38:16;17.60;99.90
46508;DHT22;32223;53.654;10.014;2022-07-04T06:40:42;17.60;99.90
46508;DHT22;32223;53.654;10.014;2022-07-04T06:43:09;17.90;99.90
46508;DHT22;32223;53.654;10.014;2022-07-04T06:45:35;17.80;99.90
46508;DHT22;32223;53.654;10.014;2022-07-04T06:48:01;18.00;99.90
46508;DHT22;32223;53.654;10.014;2022-07-04T06:50:27;18.10;99.90
46508;DHT22;32223;53.654;10.014;2022-07-04T06:52:53;18.30;99.90
46508;DHT22;32223;53.654;10.014;2022-07-04T06:55:18;18.20;99.90
46508;DHT22;32223;53.654;10.014;2022-07-04T06:57:44;18.20;99.90
46508;DHT22;32223;53.654;10.014;2022-07-04T07:00:10;18.00;99.90
46508;DHT22;32223;53.654;10.014;2022-07-04T07:02:36;18.00;99.90
46508;DHT22;32223;53.654;10.014;2022-07-04T07:05:03;18.10;99.90
46508;DHT22;32223;53.654;10.014;2022-07-04T07:07:29;18.30;99.90
46508;DHT22;32223;53.654;10.014;2022-07-04T07:09:55;18.40;99.90
46508;DHT22;32223;53.654;10.014;2022-07-04T07:12:21;18.50;99.90
46508;DHT22;32223;53.654;10.014;2022-07-04T07:14:49;18.70;99.90
46508;DHT22;32223;53.654;10.014;2022-07-04T07:17:15;18.70;99.90
46508;DHT22;32223;53.654;10.014;2022-07-04T07:19:42;18.80;99.90
46508;DHT22;32223;53.654;10.014;2022-07-04T07:22:12;18.90;99.90
46508;DHT22;32223;53.654;10.014;2022-07-04T07:24:38;19.10;99.90
46508;DHT22;32223;53.654;10.014;2022-07-04T07:27:04;19.20;99.90
46508;DHT22;32223;53.654;10.014;2022-07-04T07:29:30;19.30;99.90
46508;DHT22;32223;53.654;10.014;2022-07-04T07:31:56;19.40;99.90
46508;DHT22;32223;53.654;10.014;2022-07-04T07:34:22;19.40;99.90
46508;DHT22;32223;53.654;10.014;2022-07-04T07:36:47;19.40;99.90
46508;DHT22;32223;53.654;10.014;2022-07-04T07:39:13;19.50;99.90
46508;DHT22;32223;53.654;10.014;2022-07-04T07:41:39;19.50;99.90
46508;DHT22;32223;53.654;10.014;2022-07-04T07:44:04;19.40;99.90
46508;DHT22;32223;53.654;10.014;2022-07-04T07:46:30;19.40;99.90
46508;DHT22;32223;53.654;10.014;2022-07-04T07:48:56;19.50;99.90
46508;DHT22;32223;53.654;10.014;2022-07-04T07:51:21;19.30;99.90
46508;DHT22;32223;53.654;10.014;2022-07-04T07:53:47;19.30;99.90
46508;DHT22;32223;53.654;10.014;2022-07-04T07:56:13;19.20;99.90
46508;DHT22;32223;53.654;10.014;2022-07-04T07:58:38;19.10;99.90
46508;DHT22;32223;53.654;10.014;2022-07-04T08:01:04;19.00;99.90
46508;DHT22;32223;53.654;10.014;2022-07-04T08:03:30;18.90;99.90
46508;DHT22;32223;53.654;10.014;2022-07-04T08:06:15;19.00;99.90
46508;DHT22;32223;53.654;10.014;2022-07-04T08:08:42;19.10;99.90
46508;DHT22;32223;53.654;10.014;2022-07-04T08:11:08;19.20;99.90
46508;DHT22;32223;53.654;10.014;2022-07-04T08:13:34;19.40;99.90
46508;DHT22;32223;53.654;10.014;2022-07-04T08:16:00;19.60;99.90
46508;DHT22;32223;53.654;10.014;2022-07-04T08:18:26;19.90;99.90
46508;DHT22;32223;53.654;10.014;2022-07-04T08:20:51;20.00;99.90
46508;DHT22;32223;53.654;10.014;2022-07-04T08:23:17;20.10;99.90
46508;DHT22;32223;53.654;10.014;2022-07-04T08:25:43;20.10;99.90
46508;DHT22;32223;53.654;10.014;2022-07-04T08:28:09;20.10;99.90
46508;DHT22;32223;53.654;10.014;2022-07-04T08:30:35;20.30;99.90
46508;DHT22;32223;53.654;10.014;2022-07-04T08:33:00;20.30;99.90
46508;DHT22;32223;53.654;10.014;2022-07-04T08:35:26;20.20;99.90
46508;DHT22;32223;53.654;10.014;2022-07-04T08:37:52;20.10;99.90
46508;DHT22;32223;53.654;10.014;2022-07-04T08:40:22;20.10;99.90
46508;DHT22;32223;53.654;10.014;2022-07-04T08:42:49;19.90;99.90
46508;DHT22;32223;53.654;10.014;2022-07-04T08:45:16;19.80;99.90
46508;DHT22;32223;53.654;10.014;2022-07-04T08:47:43;19.80;99.90
46508;DHT22;32223;53.654;10.014;2022-07-04T08:50:16;19.90;99.90
46508;DHT22;32223;53.654;10.014;2022-07-04T08:52:53;20.00;99.90
46508;DHT22;32223;53.654;10.014;2022-07-04T08:55:19;20.30;99.90
46508;DHT22;32223;53.654;10.014;2022-07-04T08:58:04;20.60;99.90
46508;DHT22;32223;53.654;10.014;2022-07-04T09:00:50;20.80;99.90
46508;DHT22;32223;53.654;10.014;2022-07-04T09:03:18;20.50;99.90
46508;DHT22;32223;53.654;10.014;2022-07-04T09:05:44;20.50;99.90
46508;DHT22;32223;53.654;10.014;2022-07-04T09:08:10;20.50;99.90
46508;DHT22;32223;53.654;10.014;2022-07-04T09:10:36;20.70;99.90
46508;DHT22;32223;53.654;10.014;2022-07-04T09:13:03;20.90;99.90
46508;DHT22;32223;53.654;10.014;2022-07-04T09:15:29;20.90;99.90
46508;DHT22;32223;53.654;10.014;2022-07-04T09:17:55;21.00;99.90
46508;DHT22;32223;53.654;10.014;2022-07-04T09:20:22;20.90;99.90
46508;DHT22;32223;53.654;10.014;2022-07-04T09:22:50;20.70;99.90
46508;DHT22;32223;53.654;10.014;2022-07-04T09:25:16;20.60;99.90
46508;DHT22;32223;53.654;10.014;2022-07-04T09:27:47;20.50;99.90
46508;DHT22;32223;53.654;10.014;2022-07-04T09:30:19;20.50;99.90
46508;DHT22;32223;53.654;10.014;2022-07-04T09:32:50;20.40;99.90
46508;DHT22;32223;53.654;10.014;2022-07-04T09:35:22;20.40;99.90
46508;DHT22;32223;53.654;10.014;2022-07-04T09:40:27;20.60;99.90
46508;DHT22;32223;53.654;10.014;2022-07-04T09:42:55;20.90;99.90
46508;DHT22;32223;53.654;10.014;2022-07-04T09:45:21;21.10;99.90
46508;DHT22;32223;53.654;10.014;2022-07-04T09:47:50;21.10;99.90
46508;DHT22;32223;53.654;10.014;2022-07-04T09:50:20;21.10;99.90
46508;DHT22;32223;53.654;10.014;2022-07-04T09:52:57;20.90;99.90
46508;DHT22;32223;53.654;10.014;2022-07-04T09:55:34;20.90;99.90
46508;DHT22;32223;53.654;10.014;2022-07-04T10:00:31;21.30;99.90
46508;DHT22;32223;53.654;10.014;2022-07-04T10:03:19;21.70;99.90
46508;DHT22;32223;53.654;10.014;2022-07-04T10:05:47;22.00;99.90
46508;DHT22;32223;53.654;10.014;2022-07-04T10:08:13;22.20;99.90
46508;DHT22;32223;53.654;10.014;2022-07-04T10:10:39;22.40;99.90
46508;DHT22;32223;53.654;10.014;2022-07-04T10:13:11;22.40;99.90
46508;DHT22;32223;53.654;10.014;2022-07-04T10:15:39;22.30;99.90
46508;DHT22;32223;53.654;10.014;2022-07-04T10:18:06;22.10;99.90
46508;DHT22;32223;53.654;10.014;2022-07-04T10:20:32;21.90;99.90
46508;DHT22;32223;53.654;10.014;2022-07-04T10:22:58;21.90;99.90
46508;DHT22;32223;53.654;10.014;2022-07-04T10:25:24;22.30;99.90
46508;DHT22;32223;53.654;10.014;2022-07-04T10:27:50;22.60;99.90
46508;DHT22;32223;53.654;10.014;2022-07-04T10:30:24;22.50;99.90
46508;DHT22;32223;53.654;10.014;2022-07-04T10:32:51;22.30;99.90
46508;DHT22;32223;53.654;10.014;2022-07-04T10:35:17;22.40;99.90
46508;DHT22;32223;53.654;10.014;2022-07-04T10:38:05;22.40;99.90
46508;DHT22;32223;53.654;10.014;2022-07-04T10:46:30;21.60;99.90
46508;DHT22;32223;53.654;10.014;2022-07-04T10:54:03;21.60;99.90
46508;DHT22;32223;53.654;10.014;2022-07-04T10:58:55;21.60;99.90
46508;DHT22;32223;53.654;10.014;2022-07-04T11:01:23;21.70;99.90
46508;DHT22;32223;53.654;10.014;2022-07-04T11:03:53;22.10;99.90
46508;DHT22;32223;53.654;10.014;2022-07-04T11:09:18;22.60;99.90
46508;DHT22;32223;53.654;10.014;2022-07-04T11:11:57;22.80;99.90
46508;DHT22;32223;53.654;10.014;2022-07-04T11:14:49;22.90;99.90
46508;DHT22;32223;53.654;10.014;2022-07-04T11:17:20;23.00;99.90
46508;DHT22;32223;53.654;10.014;2022-07-04T11:19:47;23.00;99.90
46508;DHT22;32223;53.654;10.014;2022-07-04T11:22:21;22.80;99.90
46508;DHT22;32223;53.654;10.014;2022-07-04T11:24:48;22.70;99.90
46508;DHT22;32223;53.654;10.014;2022-07-04T11:27:14;22.50;99.90
46508;DHT22;32223;53.654;10.014;2022-07-04T11:29:55;22.30;99.90
46508;DHT22;32223;53.654;10.014;2022-07-04T11:32:21;22.20;99.90
46508;DHT22;32223;53.654;10.014;2022-07-04T11:34:55;22.00;99.90
46508;DHT22;32223;53.654;10.014;2022-07-04T11:37:21;21.80;99.90
46508;DHT22;32223;53.654;10.014;2022-07-04T11:39:54;21.70;99.90
46508;DHT22;32223;53.654;10.014;2022-07-04T11:43:05;21.60;99.90
46508;DHT22;32223;53.654;10.014;2022-07-04T11:45:49;21.80;99.90
46508;DHT22;32223;53.654;10.014;2022-07-04T11:48:25;22.10;99.90
46508;DHT22;32223;53.654;10.014;2022-07-04T11:50:52;22.40;99.90
46508;DHT22;32223;53.654;10.014;2022-07-04T11:53:18;22.40;99.90
46508;DHT22;32223;53.654;10.014;2022-07-04T11:55:57;22.20;99.90
46508;DHT22;32223;53.654;10.014;2022-07-04T11:58:23;22.10;99.90
46508;DHT22;32223;53.654;10.014;2022-07-04T12:00:49;22.10;99.90
46508;DHT22;32223;53.654;10.014;2022-07-04T12:03:15;22.20;99.90
46508;DHT22;32223;53.654;10.014;2022-07-04T12:05:41;22.20;99.90
46508;DHT22;32223;53.654;10.014;2022-07-04T12:08:09;22.30;99.90
46508;DHT22;32223;53.654;10.014;2022-07-04T12:10:35;22.80;99.90
46508;DHT22;32223;53.654;10.014;2022-07-04T12:13:03;23.10;99.90
46508;DHT22;32223;53.654;10.014;2022-07-04T12:20:41;23.80;99.90
46508;DHT22;32223;53.654;10.014;2022-07-04T12:23:06;24.00;99.90
46508;DHT22;32223;53.654;10.014;2022-07-04T12:25:36;24.10;99.90
46508;DHT22;32223;53.654;10.014;2022-07-04T12:28:10;24.20;99.90
46508;DHT22;32223;53.654;10.014;2022-07-04T12:30:49;24.20;99.90
46508;DHT22;32223;53.654;10.014;2022-07-04T12:33:22;24.00;99.90
46508;DHT22;32223;53.654;10.014;2022-07-04T12:35:58;23.80;99.90
46508;DHT22;32223;53.654;10.014;2022-07-04T12:38:38;23.90;99.90
46508;DHT22;32223;53.654;10.014;2022-07-04T12:41:09;23.90;99.90
46508;DHT22;32223;53.654;10.014;2022-07-04T12:46:35;24.30;99.90
46508;DHT22;32223;53.654;10.014;2022-07-04T12:49:02;24.60;99.90
46508;DHT22;32223;53.654;10.014;2022-07-04T12:51:30;24.50;99.90
46508;DHT22;32223;53.654;10.014;2022-07-04T12:53:58;24.80;99.90
46508;DHT22;32223;53.654;10.014;2022-07-04T12:56:40;24.50;99.90
46508;DHT22;32223;53.654;10.014;2022-07-04T12:59:09;24.30;99.90
46508;DHT22;32223;53.654;10.014;2022-07-04T13:01:36;24.10;99.90
46508;DHT22;32223;53.654;10.014;2022-07-04T13:04:03;24.00;99.90
46508;DHT22;32223;53.654;10.014;2022-07-04T13:06:29;23.80;99.90
46508;DHT22;32223;53.654;10.014;2022-07-04T13:08:55;23.70;99.90
46508;DHT22;32223;53.654;10.014;2022-07-04T13:11:25;23.50;99.90
46508;DHT22;32223;53.654;10.014;2022-07-04T13:14:09;23.20;99.90
46508;DHT22;32223;53.654;10.014;2022-07-04T13:16:35;22.90;99.90
46508;DHT22;32223;53.654;10.014;2022-07-04T13:19:01;22.60;99.90
46508;DHT22;32223;53.654;10.014;2022-07-04T13:21:27;22.40;99.90
46508;DHT22;32223;53.654;10.014;2022-07-04T13:23:53;22.20;99.90
46508;DHT22;32223;53.654;10.014;2022-07-04T13:26:19;21.90;99.90
46508;DHT22;32223;53.654;10.014;2022-07-04T13:28:45;21.70;99.90
46508;DHT22;32223;53.654;10.014;2022-07-04T13:31:10;21.60;99.90
46508;DHT22;32223;53.654;10.014;2022-07-04T13:33:36;21.50;99.90
46508;DHT22;32223;53.654;10.014;2022-07-04T13:36:02;21.40;99.90
46508;DHT22;32223;53.654;10.014;2022-07-04T13:38:28;21.30;99.90
46508;DHT22;32223;53.654;10.014;2022-07-04T13:40:54;21.40;99.90
46508;DHT22;32223;53.654;10.014;2022-07-04T13:43:25;21.50;99.90
46508;DHT22;32223;53.654;10.014;2022-07-04T13:45:54;21.60;99.90
46508;DHT22;32223;53.654;10.014;2022-07-04T13:48:20;21.80;99.90
46508;DHT22;32223;53.654;10.014;2022-07-04T13:50:46;22.00;99.90
46508;DHT22;32223;53.654;10.014;2022-07-04T13:53:11;22.30;99.90
46508;DHT22;32223;53.654;10.014;2022-07-04T13:55:37;22.40;99.90
46508;DHT22;32223;53.654;10.014;2022-07-04T13:58:03;22.30;99.90
46508;DHT22;32223;53.654;10.014;2022-07-04T14:00:29;22.20;99.90
46508;DHT22;32223;53.654;10.014;2022-07-04T14:02:55;22.20;99.90
46508;DHT22;32223;53.654;10.014;2022-07-04T14:05:21;22.20;99.90
46508;DHT22;32223;53.654;10.014;2022-07-04T14:07:47;22.10;99.90
46508;DHT22;32223;53.654;10.014;2022-07-04T14:10:12;22.10;99.90
46508;DHT22;32223;53.654;10.014;2022-07-04T14:12:38;22.30;99.90
46508;DHT22;32223;53.654;10.014;2022-07-04T14:15:05;23.00;99.90
46508;DHT22;32223;53.654;10.014;2022-07-04T14:17:31;23.90;99.90
46508;DHT22;32223;53.654;10.014;2022-07-04T14:19:57;24.80;99.90
46508;DHT22;32223;53.654;10.014;2022-07-04T14:22:23;25.70;99.90
46508;DHT22;32223;53.654;10.014;2022-07-04T14:24:48;26.00;99.90
46508;DHT22;32223;53.654;10.014;2022-07-04T14:27:14;25.70;99.90
46508;DHT22;32223;53.654;10.014;2022-07-04T14:29:40;25.40;99.90
46508;DHT22;32223;53.654;10.014;2022-07-04T14:32:07;25.00;99.90
46508;DHT22;32223;53.654;10.014;2022-07-04T14:34:32;25.00;99.90
46508;DHT22;32223;53.654;10.014;2022-07-04T14:36:58;25.90;99.90
46508;DHT22;32223;53.654;10.014;2022-07-04T14:39:24;26.10;99.90
46508;DHT22;32223;53.654;10.014;2022-07-04T14:41:49;25.60;99.90
46508;DHT22;32223;53.654;10.014;2022-07-04T14:44:15;25.60;99.90
46508;DHT22;32223;53.654;10.014;2022-07-04T14:46:41;26.40;99.10
46508;DHT22;32223;53.654;10.014;2022-07-04T14:49:07;27.10;98.40
46508;DHT22;32223;53.654;10.014;2022-07-04T14:51:33;27.90;97.20
46508;DHT22;32223;53.654;10.014;2022-07-04T14:53:59;28.90;93.70
46508;DHT22;32223;53.654;10.014;2022-07-04T14:56:24;30.00;91.80
46508;DHT22;32223;53.654;10.014;2022-07-04T14:58:50;30.60;86.60
46508;DHT22;32223;53.654;10.014;2022-07-04T15:01:16;30.50;80.90
46508;DHT22;32223;53.654;10.014;2022-07-04T15:03:41;30.20;78.80
46508;DHT22;32223;53.654;10.014;2022-07-04T15:06:07;29.10;78.80
46508;DHT22;32223;53.654;10.014;2022-07-04T15:08:33;28.90;80.40
46508;DHT22;32223;53.654;10.014;2022-07-04T15:10:58;28.20;81.60
46508;DHT22;32223;53.654;10.014;2022-07-04T15:13:24;27.90;83.20
46508;DHT22;32223;53.654;10.014;2022-07-04T15:15:49;27.80;84.60
46508;DHT22;32223;53.654;10.014;2022-07-04T15:18:15;27.30;85.40
46508;DHT22;32223;53.654;10.014;2022-07-04T15:20:40;26.60;87.00
46508;DHT22;32223;53.654;10.014;2022-07-04T15:23:24;25.90;87.40
46508;DHT22;32223;53.654;10.014;2022-07-04T15:26:08;25.80;90.90
46508;DHT22;32223;53.654;10.014;2022-07-04T15:28:34;26.00;90.10
46508;DHT22;32223;53.654;10.014;2022-07-04T15:31:00;26.70;90.60
46508;DHT22;32223;53.654;10.014;2022-07-04T15:33:26;27.80;90.00
46508;DHT22;32223;53.654;10.014;2022-07-04T15:35:54;28.80;87.80
46508;DHT22;32223;53.654;10.014;2022-07-04T15:38:23;29.50;85.30
46508;DHT22;32223;53.654;10.014;2022-07-04T15:40:49;30.10;83.60
46508;DHT22;32223;53.654;10.014;2022-07-04T15:43:16;30.20;80.30
46508;DHT22;32223;53.654;10.014;2022-07-04T15:45:41;30.60;80.50
46508;DHT22;32223;53.654;10.014;2022-07-04T15:48:07;30.50;79.20